AirNav   TITAN Aviation Fuels
 
 701 users online  

00TS Alpine Range Airport
Everman, Texas, USA

GOING TO EVERMAN?


FAA INFORMATION EFFECTIVE 11 AUGUST 2022

Location

FAA Identifier: 00TS
Lat/Long: 32-36-28.5800N 097-14-32.3600W
32-36.476333N 097-14.539333W
32.6079389,-97.2423222
(estimated)
Elevation: 670 ft. / 204 m (estimated)
Variation: 07E (1986)
From city: 3 miles ESE of EVERMAN, TX
Time zone: UTC -5 (UTC -6 during Standard Time)
Zip code: 76140

Airport Operations

Airport use: Private use. Permission required prior to landing
Activation date: 04/1986
Control tower: no
ARTCC: FORT WORTH CENTER
FSS: FORT WORTH FLIGHT SERVICE STATION
Attendance: DAWN-DUSK
Wind indicator: yes
Segmented circle: no

Airport Communications

WX AWOS-3PT at FWS (4 nm SW): 120.025 (817-426-4172)
WX ASOS at GKY (8 nm NE): 127.375 (817-557-0251)
WX AWOS-3P at GPM (11 nm NE): 118.475 (972-606-1433)
WX ASOS at FTW (14 nm NW): PHONE 817-740-3346
WX AWOS-3 at CPT (18 nm SW): 119.525 (817-641-4135)
WX AWOS-3 at JWY (19 nm SE): 119.575 (972-937-4747)
WX ASOS at RBD (19 nm E): PHONE 214-330-5317

Nearby radio navigation aids

VOR radial/distance  VOR name  Freq  Var
FUZr185/17.2RANGER VORTAC115.7006E
TTTr207/18.7MAVERICK VOR/DME113.1006E
CVEr219/24.1COWBOY VOR/DME116.2006E
MQPr092/38.8MILLSAP VORTAC117.7009E

 
NDB name  Hdg/Dist  Freq  Var  ID
MESQUITE248/38.024803EPQF .--. --.- ..-.

Airport Services

Runway Information

Runway 1/19

Dimensions: 1200 x 45 ft. / 366 x 14 m
Surface: turf
RUNWAY 1  RUNWAY 19
Traffic pattern: leftleft
Obstructions: 25 ft. pline, 200 ft. from runway25 ft. bldg, 50 ft. from runway

Airport Ownership and Management from official FAA records

Ownership: Privately-owned
Owner: JACK JOHNSON
4421 CEDAR CREST DR
MCKINNEY, TX 75070-7715
Phone 817-478-6613
Manager: JACK JOHNSON
4421 CEDAR CREST DR
MCMINNEY, TX 75070-7715
Phone 817-478-6613

Airport Operational Statistics

Aircraft based on the field: 2
Single engine airplanes: 2
    

Additional Remarks

FOR CD CTC REGIONAL APCH AT 972-615-2799.

Instrument Procedures

There are no published instrument procedures at 00TS.

Some nearby airports with instrument procedures:

KFWS - Fort Worth Spinks Airport (4 nm SW)
KGKY - Arlington Municipal Airport (8 nm NE)
KGPM - Grand Prairie Municipal Airport (11 nm NE)
KNFW - Fort Worth Naval Air Station JRB (Carswell Field) Airport (14 nm NW)
KFTW - Fort Worth Meacham International Airport (14 nm NW)
50F - Bourland Field Airport (18 nm W)
KCPT - Cleburne Regional Airport (18 nm SW)
KJWY - Mid-Way Regional Airport (19 nm SE)
KRBD - Dallas Executive Airport (19 nm E)
 
Loc | Ops | Rwys | IFR | FBO | Links
Com | Nav | Svcs | Stats | Notes

City of Fort Worth
 
Area around 00TS (Alpine Range Airport)
 
Road maps at: MapQuest Bing Google
 
Aerial photo
No photo
 
Sectional chart

 
Airport distance calculator
Flying to Alpine Range Airport? Find the distance to fly.

From to 00TS

Sunrise and sunset
Times for 17-Aug-2022
 Local
(UTC-5)
 Zulu
(UTC)
Morning civil twilight06:2911:29
Sunrise06:5511:55
Sunset20:1101:11
Evening civil twilight20:3701:37

Current date and time
Zulu (UTC)  17-Aug-2022 05:29:28
Local (UTC-5)  17-Aug-2022 00:29:28
 
METAR
KFWS 
4nm SW 
170455Z AUTO 17004KT 10SM CLR 29/15 A2992 RMK AO2 LTG DSNT SW T02930156
KGKY 
8nm NE 
170453Z AUTO 17005KT 10SM CLR 31/17 A2990 RMK AO2 SLP114 T03110167
KGPM 
11nm NE 
170515Z AUTO 00000KT 10SM CLR 32/15 A2991 RMK AO2 T03150150
KNFW 
14nm NW 
170452Z AUTO 16009KT 10SM CLR A2990 RMK AO2 SLP111 TSNO $
KFTW 
15nm NW 
170453Z 19005KT 10SM CLR 30/17 A2990 RMK AO2 SLP112 T03000172
KCPT 
18nm SW 
170515Z AUTO 16006KT 10SM CLR 30/16 A2993 RMK A01
KJWY 
19nm SE 
170515Z AUTO 17003KT 10SM CLR 28/17 A2993 RMK AO2 T02820170
KRBD 
20nm E 
170453Z AUTO 20006KT 10SM CLR 31/16 A2990 RMK AO2 SLP113 T03060156
TAF
KGKY 
8nm NE 
170248Z 1703/1724 19006KT P6SM BKN250 FM171500 32010KT P6SM SCT100 BKN250 FM172200 35010KT P6SM VCTS BKN100CB
KNFW 
14nm NW 
1623/1723 16008KT 9999 FEW080 BKN250 QNH2982INS FM170100 VRB04KT 9999 BKN250 QNH2984INS FM171200 26008KT 9999 SCT080 BKN250 QNH2991INS FM171800 36010KT 9999 VCTS BKN065CB OVC150 QNH2984INS AUTOMATED SENSOR METWATCH 1704 TIL 1711 T26/1712Z T39/1722Z FN20048
KFTW 
15nm NW 
170248Z 1703/1724 18006KT P6SM BKN250 FM171500 32010KT P6SM SCT100 BKN250 FM172200 35010KT P6SM VCTS BKN100CB
NOTAMs
Click for the latest NOTAMs
NOTAMs are issued by the DoD/FAA and will open in a separate window not controlled by AirNav.

 

 
 

Would you like to see your business listed on this page?

 If your business provides an interesting product or service to pilots, flight crews, aircraft, or users of the Alpine Range Airport, you should consider listing it here.  To start the listing process, click on the button below
 
Add a business
 

Other Pages about Alpine Range Airport

Update a link
 
Copyright © AirNav, LLC. All rights reserved. Privacy Policy  Contact